createdAt,value
2018-08-27T00:00:18.308Z,18.11
2018-08-27T00:02:47.630Z,18.05
2018-08-27T00:05:17.298Z,17.98
2018-08-27T00:07:46.502Z,17.92
2018-08-27T00:10:15.442Z,17.90
2018-08-27T00:12:44.567Z,17.85
2018-08-27T00:15:13.590Z,17.80
2018-08-27T00:17:42.643Z,17.76
2018-08-27T00:20:11.755Z,17.75
2018-08-27T00:22:41.971Z,17.77
2018-08-27T00:25:11.058Z,17.76
2018-08-27T00:27:40.052Z,17.74
2018-08-27T00:30:09.374Z,17.75
2018-08-27T00:32:38.442Z,17.76
2018-08-27T00:35:07.840Z,17.74
2018-08-27T00:37:37.274Z,17.72
2018-08-27T00:40:06.368Z,17.63
2018-08-27T00:42:36.107Z,17.63
2018-08-27T00:45:05.379Z,17.63
2018-08-27T00:47:34.335Z,17.62
2018-08-27T00:50:03.410Z,17.61
2018-08-27T00:52:33.071Z,17.60
2018-08-27T00:55:02.462Z,17.59
2018-08-27T00:57:31.861Z,17.55
2018-08-27T01:00:01.085Z,17.52
2018-08-27T01:02:30.230Z,17.50
2018-08-27T01:04:59.353Z,17.47
2018-08-27T01:07:28.642Z,17.43
2018-08-27T01:09:57.796Z,17.41
2018-08-27T01:12:26.784Z,17.36
2018-08-27T01:14:55.895Z,17.32
2018-08-27T01:17:25.206Z,17.27
2018-08-27T01:19:54.098Z,17.27
2018-08-27T01:22:23.084Z,17.25
2018-08-27T01:24:52.584Z,17.21
2018-08-27T01:27:22.506Z,17.19
2018-08-27T01:29:51.669Z,17.15
2018-08-27T01:32:25.537Z,17.10
2018-08-27T01:34:55.566Z,17.08
2018-08-27T01:37:25.438Z,17.06
2018-08-27T01:39:55.642Z,17.06
2018-08-27T01:42:25.591Z,17.06
2018-08-27T01:44:54.763Z,17.07
2018-08-27T01:47:24.045Z,17.08
2018-08-27T01:49:53.060Z,17.06
2018-08-27T01:52:22.251Z,17.05
2018-08-27T01:54:51.528Z,17.04
2018-08-27T01:57:20.555Z,17.05
2018-08-27T01:59:50.370Z,17.09
2018-08-27T02:02:20.563Z,17.11
2018-08-27T02:04:49.859Z,17.12
2018-08-27T02:07:19.214Z,17.10
2018-08-27T02:09:48.404Z,17.06
2018-08-27T02:12:17.793Z,17.04
2018-08-27T02:14:47.173Z,17.00
2018-08-27T02:17:16.400Z,16.94
2018-08-27T02:19:45.894Z,16.89
2018-08-27T02:22:15.141Z,16.86
2018-08-27T02:24:44.122Z,16.85
2018-08-27T02:27:15.167Z,16.81
2018-08-27T02:29:44.290Z,16.78
2018-08-27T02:32:13.288Z,16.77
2018-08-27T02:34:42.846Z,16.77
2018-08-27T02:37:11.826Z,16.77
2018-08-27T02:39:41.454Z,16.76
2018-08-27T02:42:10.806Z,16.74
2018-08-27T02:44:40.050Z,16.73
2018-08-27T02:47:09.304Z,16.76
2018-08-27T02:49:38.386Z,16.77
2018-08-27T02:52:07.691Z,16.79
2018-08-27T02:54:36.960Z,16.80
2018-08-27T02:57:06.897Z,16.80
2018-08-27T02:59:36.547Z,16.77
2018-08-27T03:02:06.174Z,16.76
2018-08-27T03:04:35.252Z,16.75
2018-08-27T03:07:04.613Z,16.76
2018-08-27T03:09:33.620Z,16.74
2018-08-27T03:12:03.585Z,16.73
2018-08-27T03:14:32.630Z,16.73
2018-08-27T03:17:01.724Z,16.74
2018-08-27T03:19:31.299Z,16.74
2018-08-27T03:22:01.285Z,16.77
2018-08-27T03:24:30.447Z,16.77
2018-08-27T03:26:59.903Z,16.77
2018-08-27T03:29:29.663Z,16.76
2018-08-27T03:31:58.814Z,16.75
2018-08-27T03:34:28.619Z,16.71
2018-08-27T03:36:57.822Z,16.70
2018-08-27T03:39:26.868Z,16.66
2018-08-27T03:41:55.898Z,16.60
2018-08-27T03:44:24.921Z,16.57
2018-08-27T03:46:53.948Z,16.55
2018-08-27T03:49:22.996Z,16.53
2018-08-27T03:51:52.082Z,16.52
2018-08-27T03:54:21.236Z,16.51
2018-08-27T03:56:50.130Z,16.52
2018-08-27T03:59:19.463Z,16.52
2018-08-27T04:01:48.736Z,16.49
2018-08-27T04:04:17.916Z,16.47
2018-08-27T04:06:48.829Z,16.47
2018-08-27T04:09:18.010Z,16.45
2018-08-27T04:11:46.857Z,16.42
2018-08-27T04:14:16.029Z,16.43
2018-08-27T04:16:45.478Z,16.40
2018-08-27T04:19:15.145Z,16.40
2018-08-27T04:21:44.306Z,16.38
2018-08-27T04:24:13.313Z,16.36
2018-08-27T04:26:42.378Z,16.35
2018-08-27T04:29:11.911Z,16.32
2018-08-27T04:31:41.342Z,16.28
2018-08-27T04:34:10.429Z,16.26
2018-08-27T04:36:40.446Z,16.22
2018-08-27T04:39:10.740Z,16.18
2018-08-27T04:41:39.798Z,16.16
2018-08-27T04:44:09.204Z,16.15
2018-08-27T04:46:39.238Z,16.15
2018-08-27T04:49:08.431Z,16.17
2018-08-27T04:51:37.647Z,16.20
2018-08-27T04:54:07.676Z,16.22
2018-08-27T04:56:36.900Z,16.22
2018-08-27T04:59:11.096Z,16.22
2018-08-27T05:01:40.827Z,16.19
2018-08-27T05:04:09.925Z,16.20
2018-08-27T05:06:39.352Z,16.21
2018-08-27T05:09:10.122Z,16.23
2018-08-27T05:11:40.101Z,16.25
2018-08-27T05:14:10.736Z,16.25
2018-08-27T05:16:39.850Z,16.24
2018-08-27T05:19:10.382Z,16.22
2018-08-27T05:21:39.458Z,16.21
2018-08-27T05:24:09.083Z,16.19
2018-08-27T05:26:38.182Z,16.18
2018-08-27T05:29:07.769Z,16.18
2018-08-27T05:31:36.952Z,16.20
2018-08-27T05:34:06.268Z,16.21
2018-08-27T05:36:35.314Z,16.21
2018-08-27T05:39:05.103Z,16.23
2018-08-27T05:41:34.062Z,16.25
2018-08-27T05:44:03.303Z,16.26
2018-08-27T05:46:32.420Z,16.33
2018-08-27T05:49:01.760Z,16.36
2018-08-27T05:51:30.943Z,16.43
2018-08-27T05:54:00.093Z,16.49
2018-08-27T05:56:29.627Z,16.56
2018-08-27T05:58:58.683Z,16.63
2018-08-27T06:01:28.055Z,16.70
2018-08-27T06:03:57.296Z,16.78
2018-08-27T06:06:26.599Z,16.84
2018-08-27T06:08:55.719Z,16.91
2018-08-27T06:11:25.169Z,16.98
2018-08-27T06:13:54.314Z,17.03
2018-08-27T06:16:23.467Z,17.07
2018-08-27T06:18:52.646Z,17.12
2018-08-27T06:21:22.250Z,17.17
2018-08-27T06:23:51.279Z,17.26
2018-08-27T06:26:20.245Z,17.34
2018-08-27T06:28:49.426Z,17.39
2018-08-27T06:31:18.400Z,17.45
2018-08-27T06:33:47.673Z,17.50
2018-08-27T06:36:17.081Z,17.54
2018-08-27T06:38:46.331Z,17.58
2018-08-27T06:41:15.937Z,17.62
2018-08-27T06:43:44.950Z,17.63
2018-08-27T06:46:14.227Z,17.66
2018-08-27T06:48:43.941Z,17.70
2018-08-27T06:51:13.375Z,17.77
2018-08-27T06:53:42.368Z,17.85
2018-08-27T06:56:11.589Z,17.94
2018-08-27T06:58:40.887Z,17.98
2018-08-27T07:01:09.967Z,18.01
2018-08-27T07:03:39.375Z,18.08
2018-08-27T07:06:08.771Z,18.10
2018-08-27T07:08:37.793Z,18.15
2018-08-27T07:11:07.525Z,18.20
2018-08-27T07:13:36.758Z,18.25
2018-08-27T07:16:06.460Z,18.31
2018-08-27T07:18:35.710Z,18.36
2018-08-27T07:21:04.742Z,18.42
2018-08-27T07:23:33.982Z,18.42
2018-08-27T07:26:03.196Z,18.42
2018-08-27T07:28:32.419Z,18.42
2018-08-27T07:31:07.951Z,18.51
2018-08-27T07:33:37.069Z,18.57
2018-08-27T07:36:06.378Z,18.64
2018-08-27T07:38:35.773Z,18.69
2018-08-27T07:41:04.948Z,18.76
2018-08-27T07:43:34.378Z,18.81
2018-08-27T07:46:03.603Z,18.86
2018-08-27T07:48:32.775Z,18.91
2018-08-27T07:51:07.063Z,18.95
2018-08-27T07:53:36.419Z,19.01
2018-08-27T07:56:05.801Z,19.04
2018-08-27T07:58:35.168Z,19.07
2018-08-27T08:01:04.403Z,19.10
2018-08-27T08:03:33.627Z,19.07
2018-08-27T08:06:02.667Z,19.07
2018-08-27T08:08:32.304Z,19.10
2018-08-27T08:11:01.550Z,19.15
2018-08-27T08:13:30.679Z,19.17
2018-08-27T08:16:00.108Z,19.20
2018-08-27T08:18:29.639Z,19.22
2018-08-27T08:20:59.193Z,19.25
2018-08-27T08:23:29.006Z,19.29
2018-08-27T08:25:58.407Z,19.32
2018-08-27T08:28:27.553Z,19.38
2018-08-27T08:30:56.607Z,19.40
2018-08-27T08:33:25.999Z,19.43
2018-08-27T08:35:55.130Z,19.51
2018-08-27T08:38:24.533Z,19.59
2018-08-27T08:41:00.381Z,19.66
2018-08-27T08:43:29.385Z,19.68
2018-08-27T08:45:58.976Z,19.70
2018-08-27T08:48:28.387Z,19.73
2018-08-27T08:50:57.613Z,19.78
2018-08-27T08:53:27.014Z,19.86
2018-08-27T08:55:56.245Z,19.92
2018-08-27T08:58:26.870Z,20.01
2018-08-27T09:00:56.301Z,20.04
2018-08-27T09:03:25.799Z,20.02
2018-08-27T09:05:55.204Z,20.07
2018-08-27T09:08:24.208Z,20.14
2018-08-27T09:10:53.283Z,20.19
2018-08-27T09:13:22.364Z,20.21
2018-08-27T09:15:51.654Z,20.21
2018-08-27T09:18:24.651Z,20.28
2018-08-27T09:20:53.774Z,20.34
2018-08-27T09:23:23.290Z,20.42
2018-08-27T09:25:53.312Z,20.52
2018-08-27T09:28:22.488Z,20.61
2018-08-27T09:30:51.685Z,20.69
2018-08-27T09:33:20.845Z,20.78
2018-08-27T09:35:50.191Z,20.81
2018-08-27T09:38:19.490Z,20.90
2018-08-27T09:40:48.546Z,20.96
2018-08-27T09:43:18.767Z,21.02
2018-08-27T09:45:47.959Z,21.07
2018-08-27T09:48:17.067Z,21.17
2018-08-27T09:50:46.167Z,21.25
2018-08-27T09:53:15.346Z,21.29
2018-08-27T09:55:44.864Z,21.28
2018-08-27T09:58:14.003Z,21.34
2018-08-27T10:00:48.169Z,21.41
2018-08-27T10:03:17.518Z,21.45
2018-08-27T10:05:46.717Z,21.51
2018-08-27T10:08:16.253Z,21.58
2018-08-27T10:10:45.292Z,21.69
2018-08-27T10:13:14.378Z,21.80
2018-08-27T10:15:43.675Z,21.89
2018-08-27T10:18:12.921Z,21.90
2018-08-27T10:20:42.201Z,21.91
2018-08-27T10:23:11.269Z,21.95
2018-08-27T10:25:40.393Z,22.01
2018-08-27T10:28:09.595Z,22.07
2018-08-27T10:30:38.907Z,22.13
2018-08-27T10:33:08.024Z,22.13
2018-08-27T10:35:37.238Z,22.16
2018-08-27T10:38:06.496Z,22.17
2018-08-27T10:40:35.883Z,22.22
2018-08-27T10:43:05.157Z,22.30
2018-08-27T10:45:34.581Z,22.38
2018-08-27T10:48:03.729Z,22.45
2018-08-27T10:50:33.904Z,22.52
2018-08-27T10:53:03.598Z,22.59
2018-08-27T10:55:33.573Z,22.67
2018-08-27T10:58:02.659Z,22.71
2018-08-27T11:00:31.664Z,22.76
2018-08-27T11:03:03.113Z,22.85
2018-08-27T11:05:32.435Z,22.95
2018-08-27T11:08:02.234Z,23.01
2018-08-27T11:10:31.393Z,23.02
2018-08-27T11:13:00.666Z,23.04
2018-08-27T11:15:29.810Z,23.10
2018-08-27T11:17:59.129Z,23.18
2018-08-27T11:20:28.466Z,23.25
2018-08-27T11:22:57.510Z,23.31
2018-08-27T11:25:26.604Z,23.36
2018-08-27T11:27:55.884Z,23.41
2018-08-27T11:30:25.669Z,23.46
2018-08-27T11:32:54.994Z,23.49
2018-08-27T11:35:24.617Z,23.54
2018-08-27T11:37:53.668Z,23.58
2018-08-27T11:40:22.944Z,23.62
2018-08-27T11:42:52.247Z,23.71
2018-08-27T11:45:21.487Z,23.75
2018-08-27T11:47:50.746Z,23.76
2018-08-27T11:50:20.067Z,23.81
2018-08-27T11:52:49.318Z,23.91
2018-08-27T11:55:19.020Z,23.99
2018-08-27T11:57:48.210Z,23.97
2018-08-27T12:00:22.622Z,23.94
2018-08-27T12:02:52.035Z,23.97
2018-08-27T12:05:21.332Z,23.95
2018-08-27T12:07:50.456Z,23.92
2018-08-27T12:10:19.607Z,23.98
2018-08-27T12:12:52.581Z,24.07
2018-08-27T12:15:21.815Z,24.12
2018-08-27T12:17:51.376Z,24.16
2018-08-27T12:20:20.635Z,24.23
2018-08-27T12:22:49.805Z,24.31
2018-08-27T12:25:18.852Z,24.43
2018-08-27T12:27:47.898Z,24.52
2018-08-27T12:30:17.336Z,24.59
2018-08-27T12:32:46.575Z,24.63
2018-08-27T12:35:15.856Z,24.68
2018-08-27T12:37:45.003Z,24.69
2018-08-27T12:40:14.275Z,24.67
2018-08-27T12:42:43.493Z,24.69
2018-08-27T12:45:12.759Z,24.74
2018-08-27T12:47:42.100Z,24.80
2018-08-27T12:50:11.242Z,24.83
2018-08-27T12:52:40.271Z,24.91
2018-08-27T12:55:09.716Z,25.01
2018-08-27T12:57:39.386Z,25.09
2018-08-27T13:00:12.679Z,25.21
2018-08-27T13:02:41.963Z,25.30
2018-08-27T13:05:11.298Z,25.44
2018-08-27T13:07:41.863Z,25.54
2018-08-27T13:10:11.180Z,25.68
2018-08-27T13:12:40.555Z,25.80
2018-08-27T13:15:10.265Z,25.89
2018-08-27T13:17:39.370Z,25.86
2018-08-27T13:20:08.393Z,25.82
2018-08-27T13:22:37.497Z,25.77
2018-08-27T13:25:06.501Z,25.79
2018-08-27T13:27:35.885Z,25.87
2018-08-27T13:30:05.231Z,25.95
2018-08-27T13:32:34.710Z,26.00
2018-08-27T13:35:04.973Z,26.08
2018-08-27T13:37:34.107Z,26.15
2018-08-27T13:40:03.473Z,26.18
2018-08-27T13:42:32.887Z,26.16
2018-08-27T13:45:02.137Z,26.17
2018-08-27T13:47:31.166Z,26.20
2018-08-27T13:50:00.324Z,26.23
2018-08-27T13:52:29.426Z,26.28
2018-08-27T13:54:58.717Z,26.33
2018-08-27T13:57:27.673Z,26.41
2018-08-27T13:59:57.189Z,26.47
2018-08-27T14:02:26.443Z,26.52
2018-08-27T14:04:55.597Z,26.58
2018-08-27T14:07:24.588Z,26.65
2018-08-27T14:09:53.675Z,26.72
2018-08-27T14:12:22.798Z,26.78
2018-08-27T14:14:52.378Z,26.80
2018-08-27T14:17:21.664Z,26.80
2018-08-27T14:19:50.933Z,26.74
2018-08-27T14:22:20.390Z,26.81
2018-08-27T14:24:49.605Z,26.82
2018-08-27T14:27:19.380Z,26.81
2018-08-27T14:29:49.083Z,26.74
2018-08-27T14:32:18.327Z,26.72
2018-08-27T14:34:47.342Z,26.75
2018-08-27T14:37:16.395Z,26.74
2018-08-27T14:39:45.618Z,26.76
2018-08-27T14:42:14.721Z,26.72
2018-08-27T14:44:44.121Z,26.71
2018-08-27T14:47:13.144Z,26.78
2018-08-27T14:49:42.396Z,26.83
2018-08-27T14:52:11.361Z,26.88
2018-08-27T14:54:40.360Z,26.90
2018-08-27T14:57:09.304Z,26.94
2018-08-27T14:59:38.811Z,26.98
2018-08-27T15:02:07.855Z,27.03
2018-08-27T15:04:37.383Z,27.07
2018-08-27T15:07:06.973Z,27.07
2018-08-27T15:09:36.337Z,27.09
2018-08-27T15:12:05.885Z,27.13
2018-08-27T15:14:41.423Z,27.18
2018-08-27T15:17:11.070Z,27.22
2018-08-27T15:19:40.590Z,27.24
2018-08-27T15:22:09.877Z,27.24
2018-08-27T15:24:39.139Z,27.31
2018-08-27T15:27:08.335Z,27.40
2018-08-27T15:29:37.646Z,27.49
2018-08-27T15:32:06.939Z,27.56
2018-08-27T15:34:35.887Z,27.63
2018-08-27T15:37:05.078Z,27.68
2018-08-27T15:39:34.194Z,27.70
2018-08-27T15:42:03.727Z,27.71
2018-08-27T15:44:32.776Z,27.72
2018-08-27T15:47:02.012Z,27.77
2018-08-27T15:49:31.439Z,27.85
2018-08-27T15:52:00.829Z,27.91
2018-08-27T15:54:30.134Z,27.99
2018-08-27T15:57:01.419Z,28.00
2018-08-27T15:59:28.539Z,28.00
2018-08-27T16:01:57.435Z,28.03
2018-08-27T16:04:26.545Z,28.06
2018-08-27T16:06:55.764Z,28.06
2018-08-27T16:09:24.907Z,28.03
2018-08-27T16:11:54.556Z,28.00
2018-08-27T16:14:23.787Z,27.97
2018-08-27T16:16:52.804Z,27.97
2018-08-27T16:19:21.868Z,28.00
2018-08-27T16:21:51.348Z,28.05
2018-08-27T16:24:20.504Z,28.08
2018-08-27T16:26:49.918Z,28.09
2018-08-27T16:29:19.129Z,28.10
2018-08-27T16:31:48.231Z,28.11
2018-08-27T16:34:17.216Z,28.10
2018-08-27T16:36:46.616Z,28.10
2018-08-27T16:39:15.888Z,28.07
2018-08-27T16:41:45.138Z,28.07
2018-08-27T16:44:14.320Z,28.08
2018-08-27T16:46:43.442Z,28.08
2018-08-27T16:49:12.746Z,28.09
2018-08-27T16:51:41.699Z,28.09
2018-08-27T16:54:11.331Z,28.11
2018-08-27T16:56:40.672Z,28.16
2018-08-27T16:59:10.081Z,28.21
2018-08-27T17:01:39.361Z,28.30
2018-08-27T17:04:09.290Z,28.42
2018-08-27T17:06:38.461Z,28.61
2018-08-27T17:09:07.667Z,28.80
2018-08-27T17:11:36.727Z,28.96
2018-08-27T17:14:06.310Z,29.06
2018-08-27T17:16:35.737Z,29.26
2018-08-27T17:19:04.842Z,29.32
2018-08-27T17:21:33.827Z,29.29
2018-08-27T17:24:02.970Z,29.19
2018-08-27T17:26:32.481Z,29.06
2018-08-27T17:29:01.646Z,28.91
2018-08-27T17:31:30.954Z,28.76
2018-08-27T17:34:00.201Z,28.59
2018-08-27T17:36:29.365Z,28.43
2018-08-27T17:38:58.537Z,28.25
2018-08-27T17:41:27.635Z,28.05
2018-08-27T17:43:57.120Z,27.87
2018-08-27T17:46:26.290Z,27.66
2018-08-27T17:48:55.632Z,27.46
2018-08-27T17:51:24.869Z,27.25
2018-08-27T17:53:54.347Z,27.04
2018-08-27T17:56:23.568Z,26.86
2018-08-27T17:58:53.080Z,26.70
2018-08-27T18:01:22.626Z,26.55
2018-08-27T18:03:51.904Z,26.39
2018-08-27T18:06:21.187Z,26.26
2018-08-27T18:08:53.458Z,26.12
2018-08-27T18:11:22.533Z,25.98
2018-08-27T18:13:52.034Z,25.84
2018-08-27T18:16:21.586Z,25.72
2018-08-27T18:18:50.944Z,25.62
2018-08-27T18:21:21.209Z,25.51
2018-08-27T18:23:50.288Z,25.41
2018-08-27T18:26:19.712Z,25.30
2018-08-27T18:28:49.840Z,25.18
2018-08-27T18:31:19.043Z,25.08
2018-08-27T18:33:48.875Z,24.99
2018-08-27T18:36:18.191Z,24.89
2018-08-27T18:38:47.286Z,24.80
2018-08-27T18:41:16.634Z,24.73
2018-08-27T18:43:47.065Z,24.65
2018-08-27T18:46:17.300Z,24.59
2018-08-27T18:48:46.675Z,24.51
2018-08-27T18:51:15.738Z,24.44
2018-08-27T18:53:45.193Z,24.37
2018-08-27T18:56:14.356Z,24.31
2018-08-27T18:58:43.624Z,24.24
2018-08-27T19:01:12.939Z,24.20
2018-08-27T19:03:42.677Z,24.14
2018-08-27T19:06:12.175Z,24.09
2018-08-27T19:08:41.573Z,24.03
2018-08-27T19:11:11.113Z,23.98
2018-08-27T19:13:40.558Z,23.94
2018-08-27T19:16:10.141Z,23.90
2018-08-27T19:18:40.450Z,23.87
2018-08-27T19:21:10.078Z,23.85
2018-08-27T19:23:39.421Z,23.82
2018-08-27T19:26:08.976Z,23.80
2018-08-27T19:28:39.044Z,23.80
2018-08-27T19:31:08.492Z,23.78
2018-08-27T19:33:37.991Z,23.69
2018-08-27T19:36:07.353Z,23.73
2018-08-27T19:38:36.849Z,23.71
2018-08-27T19:41:06.221Z,23.66
2018-08-27T19:43:35.557Z,23.63
2018-08-27T19:46:04.981Z,23.59
2018-08-27T19:48:33.965Z,23.55
2018-08-27T19:51:06.408Z,23.50
2018-08-27T19:53:35.742Z,23.48
2018-08-27T19:56:04.975Z,23.45
2018-08-27T19:58:34.296Z,23.39
2018-08-27T20:01:03.468Z,23.33
2018-08-27T20:03:33.043Z,23.29
2018-08-27T20:06:02.903Z,23.26
2018-08-27T20:08:34.471Z,23.23
2018-08-27T20:11:04.106Z,23.20
2018-08-27T20:13:35.948Z,23.18
2018-08-27T20:16:07.396Z,23.17
2018-08-27T20:18:42.980Z,23.14
2018-08-27T20:21:12.383Z,23.11
2018-08-27T20:23:41.723Z,23.08
2018-08-27T20:26:11.200Z,23.06
2018-08-27T20:28:40.512Z,23.05
2018-08-27T20:31:09.791Z,23.02
2018-08-27T20:33:39.487Z,23.02
2018-08-27T20:36:08.735Z,23.01
2018-08-27T20:38:37.994Z,23.01
2018-08-27T20:41:07.569Z,23.01
2018-08-27T20:43:37.818Z,23.01
2018-08-27T20:46:07.452Z,23.01
2018-08-27T20:48:37.342Z,23.01
2018-08-27T20:51:06.837Z,23.00
2018-08-27T20:53:36.094Z,23.00
2018-08-27T20:56:07.195Z,23.00
2018-08-27T20:58:37.027Z,22.99
2018-08-27T21:01:06.876Z,22.98
2018-08-27T21:03:36.108Z,22.98
2018-08-27T21:06:05.384Z,22.97
2018-08-27T21:08:34.681Z,22.96
2018-08-27T21:11:03.988Z,22.94
2018-08-27T21:13:33.195Z,22.92
2018-08-27T21:16:02.475Z,22.90
2018-08-27T21:18:31.896Z,22.88
2018-08-27T21:21:02.137Z,22.86
2018-08-27T21:23:31.631Z,22.86
2018-08-27T21:26:00.751Z,22.84
2018-08-27T21:28:30.226Z,22.83
2018-08-27T21:30:59.644Z,22.82
2018-08-27T21:33:29.115Z,22.81
2018-08-27T21:35:58.513Z,22.77
2018-08-27T21:38:27.953Z,22.72
2018-08-27T21:40:58.010Z,22.69
2018-08-27T21:43:27.170Z,22.65
2018-08-27T21:45:56.605Z,22.60
2018-08-27T21:48:25.659Z,22.54
2018-08-27T21:50:55.057Z,22.51
2018-08-27T21:53:24.363Z,22.47
2018-08-27T21:55:53.497Z,22.44
2018-08-27T21:58:22.874Z,22.41
2018-08-27T22:00:56.317Z,22.38
2018-08-27T22:04:35.008Z,22.34
2018-08-27T22:07:04.686Z,22.26
2018-08-27T22:09:33.997Z,22.23
2018-08-27T22:12:03.605Z,22.19
2018-08-27T22:14:33.050Z,22.16
2018-08-27T22:17:02.453Z,22.14
2018-08-27T22:19:31.807Z,22.11
2018-08-27T22:22:01.751Z,22.07
2018-08-27T22:24:31.325Z,22.03
2018-08-27T22:27:01.070Z,21.98
2018-08-27T22:29:30.249Z,21.92
2018-08-27T22:31:59.688Z,21.88
2018-08-27T22:34:28.909Z,21.86
2018-08-27T22:36:58.407Z,21.84
2018-08-27T22:39:31.818Z,21.81
2018-08-27T22:42:01.082Z,21.80
2018-08-27T22:44:30.302Z,21.78
2018-08-27T22:46:59.529Z,21.75
2018-08-27T22:49:29.177Z,21.73
2018-08-27T22:51:59.215Z,21.72
2018-08-27T22:54:29.265Z,21.69
2018-08-27T22:56:58.504Z,21.65
2018-08-27T22:59:28.409Z,21.60
2018-08-27T23:01:57.809Z,21.58
2018-08-27T23:04:32.168Z,21.56
2018-08-27T23:07:01.360Z,21.55
2018-08-27T23:09:31.206Z,21.57
2018-08-27T23:12:00.607Z,21.56
2018-08-27T23:14:29.697Z,21.53
2018-08-27T23:16:59.100Z,21.51
2018-08-27T23:19:28.471Z,21.50
2018-08-27T23:21:57.805Z,21.49
2018-08-27T23:24:27.265Z,21.47
2018-08-27T23:26:56.546Z,21.46
2018-08-27T23:29:25.821Z,21.43
2018-08-27T23:31:55.061Z,21.43
2018-08-27T23:34:24.335Z,21.43
2018-08-27T23:36:53.700Z,21.44
2018-08-27T23:39:23.096Z,21.45
2018-08-27T23:41:52.753Z,21.47
2018-08-27T23:44:21.843Z,21.47
2018-08-27T23:46:50.901Z,21.47
2018-08-27T23:49:20.185Z,21.45
2018-08-27T23:51:50.023Z,21.45
2018-08-27T23:54:21.998Z,21.44
2018-08-27T23:56:51.427Z,21.43
2018-08-27T23:59:20.735Z,21.41
